Savannah Hilton Head International Airport
KSAV : now visible

Airfield :











YOU CAN JOIN US ON...

 
LOGIN :

Register | Disclaimer

   EN    FR    IT 

 









Legend :    VFR   Marginal VFR   IFR   Intensive IFR   Very Intensive IFR
Visi :
Ceiling :
>= 8 km
>= 3000ft
5 to 8 km
1000 to 3000 ft
1500m to 5 km
500 to 1000 ft
800 to 1500m
200 to 500 ft
< 800m
< 200 ft
Symbols :   Thunderstorms  Fog  Heavy snow  Heavy precipitations  Wind > 20 kt






- Airport Elevation : 50 ft
- IATA code : SAV


KSAV - Savannah Hilton Head International

CURRENT METAR :
  • 212157Z 01019G29KT 6SM -RA BR BKN007 OVC013 16/14 A2984 RMK AO2 LTG DSNT SE CIG 004V010 CB DSNT SE P0000 T01560139

EXPIRED METARs :
  • 212141Z 02013G18KT 2SM RA BR SCT005 BKN012 OVC055 17/16 A2986 RMK AO2 LTG DSNT SE AND S CB DSNT SE-S P0025 T01670156
  • 212128Z 35012KT 4SM -RA BR SCT005 BKN012 OVC055 17/16 A2987 RMK AO2 LTG DSNT E-S PRESRR CB DSNT E-S P0019 T01720161
  • 212118Z 35011KT 2 1/2SM RA BR SCT005 BKN012 OVC030 18/17 A2986 RMK AO2 LTG DSNT S CB DSNT S AND SW P0016 T01780167
  • 212103Z 36010KT 1 1/2SM R10/5500VP6000FT +RA BR SCT005 BKN012 OVC024 18/17 A2984 RMK AO2 LTG DSNT S AND SW CB DSNT E AND SW P0007 T01830172
  • 212053Z 35010KT 2 1/2SM RA BR SCT005 BKN012 OVC045 19/18 A2985 RMK AO2 LTG DSNT E SLP108 CB DSNT E P0034 60034 T01890178 55009
  • 212030Z COR 30009KT 5SM RA BR BKN010 BKN038 OVC075 19/18 A2985 RMK AO2 LTG DSNT E CB DSNT E P0026 T01940178
  • 212021Z 28008G17KT 2 1/2SM R10/3500VP6000FT RA BR SCT010 BKN038 OVC060 19/18 A2985 RMK AO2 P0023 T01940178
  • 212011Z 30010G18KT 1SM R10/4000V5500FT +RA BR SCT008 BKN032 OVC060 19/18 A2985 RMK AO2 P0013 T01940178
  • 212006Z 28014KT 1 1/2SM R10/4000VP6000FT +RA BR SCT009 BKN034 OVC060 21/18 A2986 RMK AO2 PRESRR P0005 T02060183
  • 211853Z 23008KT 10SM FEW022 SCT065 BKN110 OVC150 25/18 A2984 RMK AO2 SLP104 CB DSNT NW T02500183
  • 211753Z 24009KT 10SM FEW024 SCT090 BKN110 OVC130 24/18 A2988 RMK AO2 LTG DSNT NE RAB15E53 SLP117 CB DSNT NE P0000 60000 T02390183 10278 20217 55006

TAF KSAV
Valid from the 21 at 20:00 until the 22 at 18:00 UTC


212020Z 2120/2218 29010KT P6SM VCTS SCT025 BKN050CB
TEMPO 2120/2122 1SM TSRA BR BKN020CB
FM212200 33007KT P6SM VCSH SCT015 BKN025
FM220900 34008KT P6SM SCT035
FM221400 01012KT P6SM BKN050
KZJX FIR / North America



MET'MAP, your aeronautical weather chart ! - Copyright ORBIFLY December 2007 - Disclaimer

ORBIFLY MET'MAP TEAM :

Programming & Development : Alexandra Zaïnal
Original concept : Baudouin d'Aumeries
Technical & hardware support : Manuel Goepfert
Assistance : Marc-Olivier Méhu




SOURCES & CREDITS :

   NOAA       Earth
Advisory